createdAt,value
2017-10-28T00:00:43.390Z,4.70
2017-10-28T00:03:11.651Z,5.00
2017-10-28T00:05:39.172Z,5.83
2017-10-28T00:08:06.671Z,5.50
2017-10-28T00:10:34.183Z,5.87
2017-10-28T00:13:01.680Z,5.37
2017-10-28T00:15:29.191Z,4.50
2017-10-28T00:17:56.736Z,4.33
2017-10-28T00:20:24.230Z,4.40
2017-10-28T00:22:51.747Z,4.63
2017-10-28T00:25:19.308Z,4.40
2017-10-28T00:27:46.823Z,4.10
2017-10-28T00:43:38.128Z,4.83
2017-10-28T00:46:05.636Z,4.70
2017-10-28T00:51:24.902Z,5.13
2017-10-28T00:53:52.396Z,4.77
2017-10-28T00:56:19.924Z,4.70
2017-10-28T00:58:47.483Z,4.70
2017-10-28T01:01:14.988Z,4.87
2017-10-28T01:03:42.509Z,4.17
2017-10-28T01:06:10.012Z,4.43
2017-10-28T01:08:37.527Z,4.47
2017-10-28T01:11:05.081Z,4.13
2017-10-28T01:13:32.603Z,4.37
2017-10-28T01:16:00.187Z,4.30
2017-10-28T01:18:27.704Z,4.00
2017-10-28T01:20:56.743Z,4.37
2017-10-28T01:23:24.259Z,3.67
2017-10-28T01:25:51.759Z,4.23
2017-10-28T01:28:19.276Z,3.80
2017-10-28T01:30:46.772Z,3.87
2017-10-28T01:33:14.288Z,4.50
2017-10-28T01:35:41.787Z,3.63
2017-10-28T01:38:09.303Z,4.17
2017-10-28T01:40:36.815Z,3.57
2017-10-28T01:43:04.327Z,4.90
2017-10-28T01:45:31.823Z,4.37
2017-10-28T01:47:59.380Z,3.63
2017-10-28T01:50:26.940Z,3.73
2017-10-28T01:52:54.464Z,4.77
2017-10-28T01:55:22.065Z,3.93
2017-10-28T01:57:49.579Z,4.27
2017-10-28T02:00:17.174Z,4.20
2017-10-28T02:02:44.695Z,3.80
2017-10-28T02:05:12.200Z,3.50
2017-10-28T02:07:39.727Z,4.60
2017-10-28T02:10:07.996Z,4.73
2017-10-28T02:12:36.275Z,3.60
2017-10-28T02:15:04.556Z,3.73
2017-10-28T02:17:32.823Z,4.53
2017-10-28T02:20:01.130Z,4.27
2017-10-28T02:22:28.631Z,4.13
2017-10-28T02:24:56.140Z,4.00
2017-10-28T02:27:23.699Z,3.10
2017-10-28T02:29:51.219Z,4.20
2017-10-28T02:32:18.716Z,4.37
2017-10-28T02:34:46.254Z,4.73
2017-10-28T02:37:14.520Z,4.53
2017-10-28T02:39:42.040Z,4.10
2017-10-28T02:42:09.535Z,4.30
2017-10-28T02:44:37.839Z,3.77
2017-10-28T02:47:05.403Z,4.03
2017-10-28T02:49:33.147Z,3.73
2017-10-28T02:52:01.440Z,5.00
2017-10-28T02:54:28.960Z,4.40
2017-10-28T02:56:56.465Z,4.37
2017-10-28T02:59:24.011Z,4.60
2017-10-28T03:01:51.507Z,3.60
2017-10-28T03:04:19.003Z,4.37
2017-10-28T03:06:47.291Z,3.73
2017-10-28T03:09:15.555Z,3.80
2017-10-28T03:11:43.071Z,4.50
2017-10-28T03:14:10.571Z,3.53
2017-10-28T03:16:38.852Z,3.57
2017-10-28T03:19:07.114Z,3.80
2017-10-28T03:21:35.386Z,4.23
2017-10-28T03:24:02.884Z,3.23
2017-10-28T03:26:30.411Z,3.20
2017-10-28T03:28:58.719Z,3.90
2017-10-28T03:31:26.239Z,3.87
2017-10-28T03:33:53.735Z,4.43
2017-10-28T03:36:21.247Z,4.23
2017-10-28T03:38:48.751Z,4.13
2017-10-28T03:41:16.302Z,4.03
2017-10-28T03:43:44.283Z,4.10
2017-10-28T03:46:11.799Z,3.90
2017-10-28T03:48:39.296Z,4.37
2017-10-28T03:51:06.807Z,4.13
2017-10-28T03:53:34.307Z,3.63
2017-10-28T03:56:01.840Z,3.83
2017-10-28T03:58:30.106Z,3.80
2017-10-28T04:00:57.928Z,4.50
2017-10-28T04:03:25.443Z,4.50
2017-10-28T04:05:53.739Z,4.17
2017-10-28T04:08:21.252Z,5.33
2017-10-28T04:10:48.755Z,4.30
2017-10-28T04:13:16.270Z,5.10
2017-10-28T04:15:43.771Z,5.70
2017-10-28T04:18:11.287Z,4.27
2017-10-28T04:20:38.783Z,3.87
2017-10-28T04:23:06.299Z,4.40
2017-10-28T04:25:33.791Z,4.30
2017-10-28T04:28:02.074Z,5.40
2017-10-28T04:30:29.651Z,5.33
2017-10-28T04:32:57.204Z,4.63
2017-10-28T04:35:24.704Z,4.70
2017-10-28T04:37:52.215Z,4.87
2017-10-28T04:40:19.772Z,4.53
2017-10-28T04:42:47.331Z,3.80
2017-10-28T04:45:14.832Z,4.33
2017-10-28T04:47:42.356Z,4.20
2017-10-28T04:50:09.863Z,5.27
2017-10-28T04:52:37.383Z,4.60
2017-10-28T04:55:04.881Z,5.30
2017-10-28T04:57:32.404Z,4.60
2017-10-28T04:59:59.941Z,5.47
2017-10-28T05:02:27.456Z,4.70
2017-10-28T05:04:54.970Z,5.60
2017-10-28T05:07:22.485Z,5.80
2017-10-28T05:09:50.779Z,4.90
2017-10-28T05:12:18.278Z,5.30
2017-10-28T05:14:45.786Z,5.23
2017-10-28T05:17:14.050Z,4.93
2017-10-28T05:19:42.355Z,5.60
2017-10-28T05:22:09.848Z,5.00
2017-10-28T05:24:37.363Z,5.80
2017-10-28T05:27:04.867Z,6.10
2017-10-28T05:29:32.379Z,5.17
2017-10-28T05:31:59.944Z,4.70
2017-10-28T05:34:27.459Z,5.60
2017-10-28T05:36:54.959Z,4.37
2017-10-28T05:39:23.264Z,5.50
2017-10-28T05:41:50.787Z,5.47
2017-10-28T05:44:18.659Z,5.67
2017-10-28T05:46:46.229Z,4.80
2017-10-28T05:49:13.755Z,5.93
2017-10-28T05:51:42.056Z,5.80
2017-10-28T05:54:09.567Z,6.00
2017-10-28T05:56:37.079Z,5.60
2017-10-28T05:59:04.579Z,6.10
2017-10-28T06:01:32.091Z,6.33
2017-10-28T06:03:59.592Z,6.80
2017-10-28T06:06:27.108Z,5.77
2017-10-28T06:08:54.663Z,6.73
2017-10-28T06:11:22.176Z,6.03
2017-10-28T06:13:49.779Z,6.07
2017-10-28T06:16:17.312Z,5.67
2017-10-28T06:18:45.580Z,6.90
2017-10-28T06:21:13.099Z,8.30
2017-10-28T06:23:40.600Z,5.80
2017-10-28T06:26:08.879Z,7.80
2017-10-28T06:28:37.170Z,12.40
2017-10-28T06:31:05.453Z,9.90
2017-10-28T06:33:33.015Z,10.13
2017-10-28T06:36:00.540Z,7.67
2017-10-28T06:38:28.807Z,9.30
2017-10-28T06:40:56.332Z,8.37
2017-10-28T06:43:23.839Z,11.27
2017-10-28T06:45:52.126Z,9.13
2017-10-28T06:48:20.419Z,9.00
2017-10-28T06:50:47.931Z,6.27
2017-10-28T06:53:15.429Z,5.70
2017-10-28T06:55:42.945Z,5.73
2017-10-28T06:58:10.447Z,4.90
2017-10-28T07:00:37.955Z,5.17
2017-10-28T07:03:05.470Z,5.90
2017-10-28T07:05:32.995Z,5.47
2017-10-28T07:08:01.265Z,4.33
2017-10-28T07:10:28.850Z,5.60
2017-10-28T07:12:56.380Z,4.70
2017-10-28T07:15:23.879Z,4.23
2017-10-28T07:17:51.391Z,5.63
2017-10-28T07:20:18.895Z,5.20
2017-10-28T07:22:46.406Z,5.93
2017-10-28T07:25:13.907Z,6.60
2017-10-28T07:27:41.419Z,7.10
2017-10-28T07:30:08.919Z,6.43
2017-10-28T07:32:36.475Z,6.60
2017-10-28T07:35:03.982Z,6.30
2017-10-28T07:37:31.508Z,6.77
2017-10-28T07:39:59.010Z,8.70
2017-10-28T07:42:26.715Z,8.60
2017-10-28T07:44:54.271Z,9.27
2017-10-28T07:47:21.831Z,8.47
2017-10-28T07:49:49.350Z,9.67
2017-10-28T07:52:16.871Z,8.90
2017-10-28T07:54:44.376Z,9.03
2017-10-28T07:57:12.684Z,9.83
2017-10-28T07:59:40.199Z,10.00
2017-10-28T08:02:07.727Z,8.57
2017-10-28T08:04:35.234Z,9.83
2017-10-28T08:07:03.538Z,9.03
2017-10-28T08:09:31.099Z,9.80
2017-10-28T08:11:58.743Z,7.80
2017-10-28T08:14:27.011Z,8.87
2017-10-28T08:16:55.300Z,7.47
2017-10-28T08:19:22.799Z,8.17
2017-10-28T08:21:50.307Z,7.83
2017-10-28T08:24:18.326Z,7.87
2017-10-28T08:26:45.850Z,7.20
2017-10-28T08:29:13.752Z,7.10
2017-10-28T08:31:41.266Z,6.90
2017-10-28T08:34:08.767Z,6.10
2017-10-28T08:36:36.271Z,6.23
2017-10-28T08:39:04.560Z,5.77
2017-10-28T08:41:32.072Z,6.33
2017-10-28T08:43:59.595Z,6.83
2017-10-28T08:46:27.099Z,6.20
2017-10-28T08:48:54.614Z,6.53
2017-10-28T08:51:22.161Z,5.90
2017-10-28T08:53:49.683Z,6.00
2017-10-28T08:56:17.951Z,5.50
2017-10-28T08:58:45.479Z,6.07
2017-10-28T09:01:12.987Z,5.90
2017-10-28T09:03:41.278Z,5.67
2017-10-28T09:06:08.788Z,5.63
2017-10-28T09:08:37.818Z,5.27
2017-10-28T09:11:06.092Z,5.10
2017-10-28T09:13:34.381Z,4.67
2017-10-28T09:16:01.887Z,5.30
2017-10-28T09:18:29.402Z,5.33
2017-10-28T09:20:56.907Z,5.00
2017-10-28T09:23:24.515Z,5.40
2017-10-28T09:25:52.066Z,6.03
2017-10-28T09:28:19.563Z,6.90
2017-10-28T09:30:47.082Z,7.30
2017-10-28T09:33:15.352Z,5.73
2017-10-28T09:35:43.634Z,6.57
2017-10-28T09:38:11.130Z,5.83
2017-10-28T09:40:38.642Z,6.70
2017-10-28T09:43:06.911Z,5.10
2017-10-28T09:45:35.199Z,6.60
2017-10-28T09:48:03.603Z,6.53
2017-10-28T09:50:31.123Z,6.73
2017-10-28T09:52:59.386Z,5.63
2017-10-28T09:55:26.902Z,5.90
2017-10-28T09:57:54.404Z,5.50
2017-10-28T10:00:21.927Z,5.97
2017-10-28T10:02:49.427Z,5.20
2017-10-28T10:05:17.728Z,5.47
2017-10-28T10:07:45.231Z,4.27
2017-10-28T10:10:12.752Z,3.43
2017-10-28T10:12:40.261Z,2.90
2017-10-28T10:15:07.791Z,2.60
2017-10-28T10:17:35.290Z,2.50
2017-10-28T10:20:03.598Z,2.37
2017-10-28T10:22:31.099Z,2.37
2017-10-28T10:24:58.611Z,2.20
2017-10-28T10:27:26.126Z,2.00
2017-10-28T10:29:53.721Z,1.80
2017-10-28T10:32:21.284Z,2.00
2017-10-28T10:34:48.792Z,1.80
2017-10-28T10:37:16.405Z,1.97
2017-10-28T10:39:43.906Z,2.43
2017-10-28T10:42:11.515Z,2.23
2017-10-28T10:44:39.015Z,2.17
2017-10-28T10:47:06.540Z,1.60
2017-10-28T10:49:34.052Z,2.10
2017-10-28T10:52:02.172Z,2.10
2017-10-28T10:54:29.674Z,1.70
2017-10-28T10:56:57.191Z,1.50
2017-10-28T10:59:24.692Z,1.67
2017-10-28T11:01:52.294Z,1.67
2017-10-28T11:04:19.790Z,1.90
2017-10-28T11:06:47.306Z,2.17
2017-10-28T11:09:16.297Z,2.57
2017-10-28T11:11:44.588Z,2.17
2017-10-28T11:14:12.091Z,2.00
2017-10-28T11:16:39.611Z,2.10
2017-10-28T11:19:07.108Z,1.97
2017-10-28T11:21:34.639Z,2.10
2017-10-28T11:24:02.171Z,1.97
2017-10-28T11:26:29.670Z,3.00
2017-10-28T11:28:57.190Z,2.40
2017-10-28T11:31:24.698Z,2.10
2017-10-28T11:33:52.216Z,2.07
2017-10-28T11:36:19.715Z,2.37
2017-10-28T11:38:47.235Z,2.33
2017-10-28T11:41:14.730Z,2.00
2017-10-28T11:43:42.253Z,2.23
2017-10-28T11:46:09.756Z,2.73
2017-10-28T11:48:37.276Z,2.37
2017-10-28T11:51:04.780Z,2.37
2017-10-28T11:53:32.320Z,3.40
2017-10-28T11:55:59.822Z,2.73
2017-10-28T11:58:27.379Z,3.03
2017-10-28T12:00:55.647Z,3.47
2017-10-28T12:03:23.927Z,2.40
2017-10-28T12:05:52.191Z,2.50
2017-10-28T12:08:20.502Z,2.73
2017-10-28T12:10:48.047Z,3.23
2017-10-28T12:13:15.577Z,3.33
2017-10-28T12:15:43.783Z,3.50
2017-10-28T12:18:12.168Z,3.33
2017-10-28T12:20:39.671Z,3.13
2017-10-28T12:23:07.186Z,3.20
2017-10-28T12:25:34.719Z,3.70
2017-10-28T12:28:03.091Z,4.17
2017-10-28T12:30:31.394Z,3.50
2017-10-28T12:32:58.948Z,3.80
2017-10-28T12:35:26.465Z,5.77
2017-10-28T12:37:53.971Z,3.90
2017-10-28T12:40:21.618Z,4.27
2017-10-28T12:42:49.120Z,3.80
2017-10-28T12:45:16.643Z,4.40
2017-10-28T12:47:44.143Z,4.37
2017-10-28T12:50:11.665Z,4.13
2017-10-28T12:52:39.215Z,3.57
2017-10-28T12:55:06.727Z,3.37
2017-10-28T12:57:34.227Z,4.07
2017-10-28T13:00:01.747Z,4.17
2017-10-28T13:02:29.342Z,3.87
2017-10-28T13:04:56.920Z,4.00
2017-10-28T13:07:24.418Z,3.77
2017-10-28T13:09:51.944Z,4.23
2017-10-28T13:12:19.442Z,4.10
2017-10-28T13:14:47.034Z,4.20
2017-10-28T13:17:14.613Z,3.47
2017-10-28T13:19:42.131Z,3.50
2017-10-28T13:22:10.395Z,4.43
2017-10-28T13:24:37.979Z,3.50
2017-10-28T13:27:06.252Z,4.13
2017-10-28T13:29:34.648Z,3.10
2017-10-28T13:32:02.153Z,3.37
2017-10-28T13:34:29.658Z,4.90
2017-10-28T13:36:57.171Z,3.20
2017-10-28T13:39:25.594Z,3.40
2017-10-28T13:41:53.111Z,3.50
2017-10-28T13:44:20.610Z,2.97
2017-10-28T13:46:48.132Z,3.80
2017-10-28T13:49:15.630Z,3.87
2017-10-28T13:51:43.186Z,3.13
2017-10-28T13:54:10.743Z,3.60
2017-10-28T13:56:38.258Z,3.57
2017-10-28T13:59:05.762Z,2.73
2017-10-28T14:01:33.324Z,3.63
2017-10-28T14:04:00.830Z,3.30
2017-10-28T14:06:28.342Z,3.87
2017-10-28T14:08:55.843Z,4.03
2017-10-28T14:11:23.363Z,3.60
2017-10-28T14:13:50.863Z,3.40
2017-10-28T14:16:18.384Z,3.10
2017-10-28T14:18:45.887Z,3.30
2017-10-28T14:21:14.167Z,3.97
2017-10-28T14:23:41.764Z,3.67
2017-10-28T14:26:09.335Z,3.93
2017-10-28T14:28:36.836Z,4.53
2017-10-28T14:31:04.344Z,3.70
2017-10-28T14:33:31.872Z,3.27
2017-10-28T14:36:00.143Z,3.43
2017-10-28T14:38:28.431Z,3.80
2017-10-28T14:40:56.694Z,3.87
2017-10-28T14:43:24.218Z,4.53
2017-10-28T14:45:51.723Z,4.33
2017-10-28T14:48:20.012Z,4.17
2017-10-28T14:50:47.515Z,3.97
2017-10-28T14:53:15.044Z,5.53
2017-10-28T14:55:42.539Z,3.10
2017-10-28T14:58:10.050Z,3.73
2017-10-28T15:00:37.560Z,4.37
2017-10-28T15:03:05.843Z,3.17
2017-10-28T15:05:34.851Z,4.03
2017-10-28T15:08:03.135Z,3.80
2017-10-28T15:10:31.398Z,3.40
2017-10-28T15:12:59.703Z,4.07
2017-10-28T15:15:27.207Z,3.90
2017-10-28T15:17:54.731Z,4.10
2017-10-28T15:20:22.234Z,4.07
2017-10-28T15:22:49.747Z,3.47
2017-10-28T15:25:17.242Z,3.63
2017-10-28T15:27:44.772Z,3.67
2017-10-28T15:30:12.267Z,3.43
2017-10-28T15:32:39.862Z,3.00
2017-10-28T15:35:07.380Z,3.47
2017-10-28T15:37:34.882Z,3.13
2017-10-28T15:40:02.398Z,3.40
2017-10-28T15:42:29.906Z,3.13
2017-10-28T15:44:57.427Z,2.90
2017-10-28T15:47:25.732Z,4.00
2017-10-28T15:49:53.259Z,4.53
2017-10-28T15:52:20.761Z,2.80
2017-10-28T15:54:48.307Z,2.93
2017-10-28T15:57:15.817Z,2.93
2017-10-28T15:59:44.850Z,3.40
2017-10-28T16:02:12.351Z,2.97
2017-10-28T16:04:39.867Z,2.53
2017-10-28T16:07:07.374Z,2.77
2017-10-28T16:09:34.890Z,3.30
2017-10-28T16:12:02.395Z,2.70
2017-10-28T16:14:29.919Z,2.63
2017-10-28T16:16:57.428Z,2.40
2017-10-28T16:19:25.024Z,2.57
2017-10-28T16:21:52.535Z,2.63
2017-10-28T16:24:20.474Z,2.73
2017-10-28T16:26:47.979Z,3.47
2017-10-28T16:29:16.268Z,3.40
2017-10-28T16:31:44.539Z,2.67
2017-10-28T16:34:12.831Z,2.87
2017-10-28T16:36:40.336Z,2.63
2017-10-28T16:39:07.955Z,2.90
2017-10-28T16:41:35.463Z,3.83
2017-10-28T16:44:03.072Z,2.80
2017-10-28T16:46:30.570Z,2.70
2017-10-28T16:48:58.071Z,2.43
2017-10-28T16:51:26.383Z,2.63
2017-10-28T16:53:53.892Z,2.97
2017-10-28T16:56:22.179Z,3.00
2017-10-28T16:58:50.456Z,3.07
2017-10-28T17:01:18.735Z,2.53
2017-10-28T17:03:47.007Z,3.23
2017-10-28T17:06:15.921Z,2.70
2017-10-28T17:08:44.279Z,2.60
2017-10-28T17:11:11.875Z,3.27
2017-10-28T17:13:39.379Z,3.40
2017-10-28T17:16:07.671Z,3.57
2017-10-28T17:18:35.941Z,3.10
2017-10-28T17:21:04.232Z,2.73
2017-10-28T17:23:31.739Z,2.70
2017-10-28T17:25:59.268Z,3.80
2017-10-28T17:28:26.767Z,2.60
2017-10-28T17:30:54.299Z,3.00
2017-10-28T17:33:21.826Z,2.60
2017-10-28T17:35:49.387Z,2.80
2017-10-28T17:38:16.889Z,2.60
2017-10-28T17:40:45.186Z,2.73
2017-10-28T17:43:12.694Z,2.70
2017-10-28T17:45:40.219Z,2.30
2017-10-28T17:48:08.489Z,2.57
2017-10-28T17:50:36.770Z,2.70
2017-10-28T17:53:05.040Z,2.80
2017-10-28T17:55:33.322Z,2.67
2017-10-28T17:58:01.587Z,2.57
2017-10-28T18:00:29.905Z,3.73
2017-10-28T18:02:57.414Z,3.10
2017-10-28T18:05:24.916Z,3.17
2017-10-28T18:07:52.462Z,3.33
2017-10-28T18:10:19.967Z,2.73
2017-10-28T18:12:47.490Z,2.60
2017-10-28T18:15:14.995Z,3.30
2017-10-28T18:17:42.514Z,2.77
2017-10-28T18:20:10.020Z,3.33
2017-10-28T18:22:37.620Z,3.07
2017-10-28T18:25:05.132Z,2.80
2017-10-28T18:27:34.155Z,2.90
2017-10-28T18:30:02.423Z,3.10
2017-10-28T18:35:04.517Z,2.40
2017-10-28T18:37:32.041Z,3.43
2017-10-28T18:39:59.554Z,3.50
2017-10-28T18:42:27.074Z,3.03
2017-10-28T18:44:55.348Z,3.10
2017-10-28T18:47:23.640Z,2.80
2017-10-28T18:49:51.145Z,3.50
2017-10-28T18:52:18.663Z,3.30
2017-10-28T18:54:46.260Z,3.20
2017-10-28T18:57:13.879Z,3.53
2017-10-28T18:59:41.487Z,4.47
2017-10-28T19:02:09.106Z,3.30
2017-10-28T19:04:36.711Z,4.03
2017-10-28T19:07:04.460Z,2.67
2017-10-28T19:09:31.989Z,3.73
2017-10-28T19:11:59.507Z,2.83
2017-10-28T19:14:27.027Z,2.70
2017-10-28T19:16:54.603Z,2.60
2017-10-28T19:19:22.123Z,2.93
2017-10-28T19:21:49.642Z,2.50
2017-10-28T19:24:17.158Z,2.40
2017-10-28T19:26:44.692Z,2.57
2017-10-28T19:29:12.233Z,3.00
2017-10-28T19:31:40.495Z,2.77
2017-10-28T19:34:08.042Z,2.60
2017-10-28T19:36:36.323Z,3.30
2017-10-28T19:39:03.876Z,2.87
2017-10-28T19:41:32.146Z,3.50
2017-10-28T19:43:59.668Z,4.07
2017-10-28T19:46:27.171Z,4.10
2017-10-28T19:48:54.695Z,2.90
2017-10-28T19:51:22.246Z,3.20
2017-10-28T19:53:49.772Z,2.93
2017-10-28T19:56:17.285Z,3.23
2017-10-28T19:58:45.076Z,3.00
2017-10-28T20:01:12.583Z,3.27
2017-10-28T20:03:40.110Z,3.17
2017-10-28T20:06:08.379Z,2.93
2017-10-28T20:08:36.686Z,3.73
2017-10-28T20:11:04.199Z,3.30
2017-10-28T20:13:32.505Z,4.37
2017-10-28T20:16:00.784Z,4.00
2017-10-28T20:18:28.342Z,3.87
2017-10-28T20:20:55.843Z,3.90
2017-10-28T20:23:23.363Z,3.27
2017-10-28T20:25:50.871Z,3.30
2017-10-28T20:28:18.393Z,3.40
2017-10-28T20:30:45.908Z,3.40
2017-10-28T20:33:14.196Z,3.10
2017-10-28T20:35:42.467Z,3.30
2017-10-28T20:38:11.024Z,3.70
2017-10-28T20:40:38.523Z,3.87
2017-10-28T20:43:06.043Z,4.30
2017-10-28T20:45:33.547Z,4.93
2017-10-28T20:48:01.075Z,3.87
2017-10-28T20:50:29.390Z,3.60
2017-10-28T20:52:56.896Z,3.50
2017-10-28T20:55:24.417Z,3.30
2017-10-28T20:57:51.925Z,2.83
2017-10-28T21:00:20.231Z,3.60
2017-10-28T21:02:47.739Z,4.47
2017-10-28T21:05:15.264Z,3.30
2017-10-28T21:07:42.770Z,3.70
2017-10-28T21:10:10.299Z,3.40
2017-10-28T21:12:37.824Z,3.00
2017-10-28T21:15:05.352Z,3.40
2017-10-28T21:17:33.618Z,3.10
2017-10-28T21:20:01.212Z,3.30
2017-10-28T21:22:28.727Z,2.80
2017-10-28T21:24:56.252Z,3.30
2017-10-28T21:27:23.794Z,3.20
2017-10-28T21:29:51.335Z,3.07
2017-10-28T21:32:19.607Z,2.50
2017-10-28T21:34:47.875Z,3.23
2017-10-28T21:37:16.163Z,3.40
2017-10-28T21:39:44.435Z,3.50
2017-10-28T21:42:12.714Z,2.57
2017-10-28T21:44:40.979Z,3.10
2017-10-28T21:47:09.279Z,3.43
2017-10-28T21:49:36.839Z,2.90
2017-10-28T21:52:04.363Z,2.53
2017-10-28T21:54:31.863Z,3.20
2017-10-28T21:56:59.383Z,2.77
2017-10-28T21:59:26.879Z,2.70
2017-10-28T22:01:54.403Z,2.60
2017-10-28T22:04:22.671Z,3.07
2017-10-28T22:06:50.191Z,3.13
2017-10-28T22:09:17.706Z,3.10
2017-10-28T22:11:45.998Z,2.83
2017-10-28T22:14:13.510Z,2.73
2017-10-28T22:16:41.039Z,2.83
2017-10-28T22:19:08.544Z,2.77
2017-10-28T22:21:36.822Z,2.07
2017-10-28T22:24:05.101Z,2.90
2017-10-28T22:26:33.606Z,2.97
2017-10-28T22:29:01.111Z,2.63
2017-10-28T22:31:28.720Z,2.67
2017-10-28T22:33:56.224Z,2.17
2017-10-28T22:36:23.740Z,2.40
2017-10-28T22:38:51.266Z,2.43
2017-10-28T22:41:19.567Z,2.43
2017-10-28T22:43:47.092Z,2.00
2017-10-28T22:46:14.691Z,1.60
2017-10-28T22:48:42.203Z,2.13
2017-10-28T22:51:09.822Z,1.97
2017-10-28T22:53:37.355Z,2.03
2017-10-28T22:56:05.623Z,2.30
2017-10-28T22:58:34.020Z,2.13
2017-10-28T23:01:01.535Z,2.50
2017-10-28T23:03:29.055Z,2.23
2017-10-28T23:05:56.590Z,1.90
2017-10-28T23:08:24.571Z,2.27
2017-10-28T23:10:52.066Z,1.53
2017-10-28T23:13:19.588Z,2.00
2017-10-28T23:15:47.098Z,2.10
2017-10-28T23:18:14.623Z,1.20
2017-10-28T23:20:42.148Z,1.80
2017-10-28T23:23:09.670Z,1.27
2017-10-28T23:25:37.162Z,2.03
2017-10-28T23:28:04.664Z,1.40
2017-10-28T23:30:32.599Z,1.70
2017-10-28T23:33:00.151Z,1.67
2017-10-28T23:35:27.666Z,1.73
2017-10-28T23:37:55.263Z,2.03
2017-10-28T23:40:22.784Z,1.40
2017-10-28T23:42:50.308Z,1.73
2017-10-28T23:45:17.830Z,1.80
2017-10-28T23:47:46.101Z,1.60
2017-10-28T23:50:14.499Z,1.73
2017-10-28T23:52:42.003Z,1.70
2017-10-28T23:55:09.527Z,1.80
2017-10-28T23:57:37.027Z,1.30
